createdAt,value
2022-11-14T00:00:56.418Z,59.55
2022-11-14T00:03:29.349Z,64.53
2022-11-14T00:05:56.198Z,62.03
2022-11-14T00:08:25.606Z,58.50
2022-11-14T00:10:52.496Z,55.50
2022-11-14T00:13:20.550Z,55.97
2022-11-14T00:15:54.433Z,59.50
2022-11-14T00:18:21.966Z,64.00
2022-11-14T00:20:50.286Z,57.60
2022-11-14T00:23:17.786Z,60.78
2022-11-14T00:25:45.673Z,58.55
2022-11-14T00:28:13.037Z,61.70
2022-11-14T00:30:40.043Z,61.70
2022-11-14T00:33:06.979Z,66.47
2022-11-14T00:35:33.784Z,71.68
2022-11-14T00:38:00.894Z,73.85
2022-11-14T00:40:27.815Z,86.60
2022-11-14T00:42:54.597Z,96.47
2022-11-14T00:45:21.947Z,95.47
2022-11-14T00:47:48.870Z,92.47
2022-11-14T00:50:17.200Z,77.13
2022-11-14T00:52:44.385Z,95.78
2022-11-14T00:55:11.265Z,99.65
2022-11-14T00:57:38.026Z,101.85
2022-11-14T01:00:06.405Z,97.75
2022-11-14T01:02:33.393Z,82.78
2022-11-14T01:05:00.693Z,82.85
2022-11-14T01:07:27.611Z,89.65
2022-11-14T01:09:54.429Z,79.00
2022-11-14T01:12:21.299Z,77.25
2022-11-14T01:14:48.494Z,73.40
2022-11-14T01:17:15.575Z,74.40
2022-11-14T01:19:42.386Z,74.00
2022-11-14T01:22:09.312Z,82.57
2022-11-14T01:24:36.214Z,67.00
2022-11-14T01:27:03.648Z,68.07
2022-11-14T01:29:33.078Z,72.78
2022-11-14T01:32:00.031Z,67.43
2022-11-14T01:34:26.862Z,69.30
2022-11-14T01:36:53.692Z,71.45
2022-11-14T01:39:20.520Z,48.15
2022-11-14T01:41:47.682Z,60.53
2022-11-14T01:44:38.025Z,52.97
2022-11-14T01:47:06.306Z,54.85
2022-11-14T01:49:41.615Z,55.75
2022-11-14T01:52:16.382Z,56.20
2022-11-14T01:54:48.514Z,55.13
2022-11-14T01:57:18.823Z,56.63
2022-11-14T01:59:51.986Z,53.80
2022-11-14T02:02:26.216Z,58.60
2022-11-14T02:05:15.564Z,57.85
2022-11-14T02:07:42.464Z,61.30
2022-11-14T02:10:18.901Z,59.13
2022-11-14T02:12:46.301Z,64.07
2022-11-14T02:15:14.709Z,57.33
2022-11-14T02:17:43.117Z,62.42
2022-11-14T02:20:10.255Z,57.45
2022-11-14T02:22:38.222Z,57.40
2022-11-14T02:25:06.230Z,55.33
2022-11-14T02:27:35.101Z,56.60
2022-11-14T02:30:08.167Z,55.40
2022-11-14T02:32:56.836Z,67.35
2022-11-14T02:35:21.930Z,62.20
2022-11-14T02:37:48.925Z,54.83
2022-11-14T02:40:15.906Z,58.22
2022-11-14T02:42:42.766Z,59.95
2022-11-14T02:45:11.494Z,70.82
2022-11-14T02:47:38.462Z,65.97
2022-11-14T02:50:05.639Z,66.10
2022-11-14T02:52:32.496Z,69.45
2022-11-14T02:54:59.364Z,71.57
2022-11-14T02:57:26.194Z,75.53
2022-11-14T02:59:53.013Z,79.30
2022-11-14T03:02:24.837Z,67.30
2022-11-14T03:04:51.802Z,67.80
2022-11-14T03:07:18.921Z,66.70
2022-11-14T03:09:45.725Z,74.57
2022-11-14T03:12:15.560Z,67.13
2022-11-14T03:14:42.366Z,67.22
2022-11-14T03:17:09.454Z,61.17
2022-11-14T03:19:36.322Z,63.42
2022-11-14T03:22:05.966Z,66.10
2022-11-14T03:24:32.755Z,60.65
2022-11-14T03:26:59.639Z,61.45
2022-11-14T03:29:26.651Z,56.90
2022-11-14T03:31:53.460Z,56.13
2022-11-14T03:34:20.242Z,52.05
2022-11-14T03:36:47.135Z,52.30
2022-11-14T03:39:13.906Z,51.80
2022-11-14T03:41:40.674Z,49.40
2022-11-14T03:44:07.541Z,47.53
2022-11-14T03:46:39.487Z,52.53
2022-11-14T03:49:06.385Z,46.22
2022-11-14T03:51:33.229Z,50.10
2022-11-14T03:54:00.171Z,52.67
2022-11-14T03:56:27.057Z,55.65
2022-11-14T03:58:54.107Z,49.50
2022-11-14T04:01:21.056Z,49.10
2022-11-14T04:03:47.865Z,46.40
2022-11-14T04:06:15.472Z,49.25
2022-11-14T04:08:47.943Z,47.95
2022-11-14T04:11:14.856Z,43.25
2022-11-14T04:13:41.655Z,45.67
2022-11-14T04:16:08.636Z,47.33
2022-11-14T04:18:35.588Z,43.85
2022-11-14T04:21:02.371Z,44.97
2022-11-14T04:23:29.317Z,44.85
2022-11-14T04:26:03.500Z,44.50
2022-11-14T04:28:30.787Z,47.33
2022-11-14T04:30:57.815Z,49.35
2022-11-14T04:33:24.675Z,54.20
2022-11-14T04:35:51.618Z,49.22
2022-11-14T04:38:18.525Z,55.15
2022-11-14T04:40:50.074Z,54.40
2022-11-14T04:43:16.934Z,48.97
2022-11-14T04:45:43.907Z,53.95
2022-11-14T04:48:10.947Z,54.90
2022-11-14T04:50:37.825Z,53.58
2022-11-14T04:53:05.613Z,55.20
2022-11-14T04:55:32.676Z,53.88
2022-11-14T04:57:59.866Z,54.47
2022-11-14T05:00:27.337Z,56.80
2022-11-14T05:02:54.117Z,64.43
2022-11-14T05:05:21.086Z,61.60
2022-11-14T05:07:47.973Z,60.97
2022-11-14T05:10:14.794Z,60.53
2022-11-14T05:12:41.657Z,60.38
2022-11-14T05:15:09.152Z,60.85
2022-11-14T05:17:35.977Z,58.10
2022-11-14T05:20:02.895Z,60.47
2022-11-14T05:22:29.925Z,73.43
2022-11-14T05:24:56.826Z,73.00
2022-11-14T05:27:23.656Z,70.43
2022-11-14T05:29:50.434Z,56.60
2022-11-14T05:32:17.218Z,54.72
2022-11-14T05:34:44.173Z,63.00
2022-11-14T05:37:11.039Z,52.85
2022-11-14T05:39:37.872Z,54.72
2022-11-14T05:42:05.154Z,56.70
2022-11-14T05:44:32.123Z,57.28
2022-11-14T05:46:58.879Z,54.45
2022-11-14T05:49:25.776Z,51.97
2022-11-14T05:51:52.537Z,51.72
2022-11-14T05:54:19.326Z,48.30
2022-11-14T05:56:46.201Z,49.88
2022-11-14T05:59:13.003Z,47.47
2022-11-14T06:01:39.838Z,40.47
2022-11-14T06:04:07.213Z,47.70
2022-11-14T06:06:34.108Z,41.00
2022-11-14T06:09:01.016Z,37.40
2022-11-14T06:11:27.848Z,42.92
2022-11-14T06:13:54.729Z,39.28
2022-11-14T06:18:48.985Z,37.10
2022-11-14T06:21:18.712Z,43.15
2022-11-14T06:23:46.117Z,37.97
2022-11-14T06:26:26.632Z,40.65
2022-11-14T06:28:54.154Z,39.50
2022-11-14T06:31:23.614Z,40.65
2022-11-14T06:33:50.579Z,38.33
2022-11-14T06:36:18.588Z,31.90
2022-11-14T06:38:45.739Z,37.00
2022-11-14T06:41:20.923Z,49.58
2022-11-14T06:43:50.529Z,38.22
2022-11-14T06:46:20.294Z,37.67
2022-11-14T06:48:48.498Z,38.03
2022-11-14T06:51:16.955Z,38.15
2022-11-14T06:53:43.905Z,38.55
2022-11-14T06:56:13.478Z,33.45
2022-11-14T06:58:43.773Z,33.42
2022-11-14T07:01:23.982Z,36.78
2022-11-14T07:03:50.956Z,36.88
2022-11-14T07:06:26.696Z,33.95
2022-11-14T07:08:54.919Z,29.77
2022-11-14T07:11:25.484Z,34.50
2022-11-14T07:14:03.166Z,33.17
2022-11-14T07:16:35.750Z,42.42
2022-11-14T07:19:05.049Z,34.47
2022-11-14T07:21:32.129Z,32.58
2022-11-14T07:23:59.015Z,35.03
2022-11-14T07:26:26.151Z,29.08
2022-11-14T07:28:57.850Z,30.90
2022-11-14T07:31:27.812Z,32.00
2022-11-14T07:33:54.925Z,29.25
2022-11-14T07:36:21.864Z,31.10
2022-11-14T07:38:48.812Z,28.95
2022-11-14T07:41:16.968Z,42.35
2022-11-14T07:43:44.444Z,30.13
2022-11-14T07:46:14.516Z,27.08
2022-11-14T07:48:45.256Z,29.60
2022-11-14T07:51:20.091Z,28.98
2022-11-14T07:53:47.351Z,32.30
2022-11-14T07:56:17.356Z,23.85
2022-11-14T07:58:47.465Z,28.58
2022-11-14T08:01:15.107Z,23.45
2022-11-14T08:03:46.092Z,29.50
2022-11-14T08:06:15.682Z,24.08
2022-11-14T08:08:42.780Z,24.90
2022-11-14T08:11:09.964Z,26.23
2022-11-14T08:13:36.843Z,24.60
2022-11-14T08:16:10.737Z,36.20
2022-11-14T08:18:39.705Z,23.08
2022-11-14T08:21:07.075Z,26.67
2022-11-14T08:23:36.893Z,25.08
2022-11-14T08:26:03.791Z,22.00
2022-11-14T08:28:30.959Z,23.73
2022-11-14T08:31:02.484Z,20.55
2022-11-14T08:33:30.734Z,21.38
2022-11-14T08:36:04.845Z,21.33
2022-11-14T08:38:33.499Z,20.20
2022-11-14T08:41:01.664Z,22.00
2022-11-14T08:43:28.685Z,17.50
2022-11-14T08:46:01.859Z,21.15
2022-11-14T08:48:30.849Z,23.92
2022-11-14T08:50:58.678Z,21.30
2022-11-14T08:53:25.627Z,21.42
2022-11-14T08:55:52.418Z,21.10
2022-11-14T08:58:19.267Z,22.00
2022-11-14T09:00:46.170Z,21.17
2022-11-14T09:03:14.828Z,21.83
2022-11-14T09:05:42.314Z,20.02
2022-11-14T09:08:09.288Z,24.63
2022-11-14T09:10:38.004Z,20.45
2022-11-14T09:13:04.823Z,16.80
2022-11-14T09:15:31.741Z,19.48
2022-11-14T09:17:58.846Z,22.90
2022-11-14T09:20:31.656Z,26.90
2022-11-14T09:23:02.225Z,26.42
2022-11-14T09:25:29.884Z,19.92
2022-11-14T09:27:57.512Z,21.88
2022-11-14T09:30:25.619Z,22.20
2022-11-14T09:32:52.953Z,27.45
2022-11-14T09:35:19.857Z,23.55
2022-11-14T09:37:46.715Z,21.65
2022-11-14T09:40:14.609Z,22.50
2022-11-14T09:42:59.989Z,24.45
2022-11-14T09:45:28.395Z,20.98
2022-11-14T09:48:09.814Z,23.60
2022-11-14T09:51:06.232Z,19.77
2022-11-14T09:54:16.288Z,22.13
2022-11-14T09:56:43.106Z,26.40
2022-11-14T09:59:12.304Z,25.00
2022-11-14T10:01:57.317Z,27.25
2022-11-14T10:04:36.004Z,29.75
2022-11-14T10:07:10.365Z,32.45
2022-11-14T10:10:02.435Z,31.10
2022-11-14T10:12:51.633Z,26.70
2022-11-14T10:15:33.540Z,31.30
2022-11-14T10:18:07.008Z,28.77
2022-11-14T10:20:40.164Z,30.42
2022-11-14T10:23:30.085Z,26.67
2022-11-14T10:26:03.026Z,29.95
2022-11-14T10:28:35.734Z,29.63
2022-11-14T10:31:36.466Z,27.33
2022-11-14T10:34:20.750Z,30.13
2022-11-14T10:37:14.923Z,28.92
2022-11-14T10:39:51.077Z,28.23
2022-11-14T10:42:38.564Z,27.90
2022-11-14T10:45:09.323Z,29.25
2022-11-14T10:47:49.154Z,24.95
2022-11-14T10:50:21.446Z,26.80
2022-11-14T10:52:48.662Z,26.63
2022-11-14T10:55:17.914Z,28.10
2022-11-14T10:57:48.701Z,26.08
2022-11-14T11:00:23.654Z,27.30
2022-11-14T11:02:53.880Z,24.52
2022-11-14T11:05:24.573Z,24.73
2022-11-14T11:08:36.293Z,30.10
2022-11-14T11:11:19.216Z,29.45
2022-11-14T11:13:55.093Z,26.10
2022-11-14T11:16:24.044Z,25.85
2022-11-14T11:18:51.203Z,22.10
2022-11-14T11:21:20.996Z,27.33
2022-11-14T11:23:50.745Z,23.70
2022-11-14T11:26:23.567Z,28.20
2022-11-14T11:29:10.190Z,28.10
2022-11-14T11:31:58.446Z,24.52
2022-11-14T11:34:31.247Z,27.77
2022-11-14T11:37:20.838Z,24.45
2022-11-14T11:40:01.310Z,31.73
2022-11-14T11:43:23.905Z,22.08
2022-11-14T11:45:24.181Z,22.33
2022-11-14T11:48:01.482Z,19.92
2022-11-14T11:50:30.249Z,19.05
2022-11-14T11:53:13.094Z,22.55
2022-11-14T11:56:13.322Z,25.75
2022-11-14T11:59:09.164Z,20.98
2022-11-14T12:01:36.005Z,53.15
2022-11-14T12:04:04.253Z,24.88
2022-11-14T12:06:41.873Z,21.38
2022-11-14T12:10:03.598Z,21.77
2022-11-14T12:12:41.592Z,22.15
2022-11-14T12:15:14.855Z,20.35
2022-11-14T12:17:57.763Z,51.63
2022-11-14T12:20:55.513Z,23.52
2022-11-14T12:23:31.580Z,25.80
2022-11-14T12:26:22.132Z,20.25
2022-11-14T12:28:59.198Z,23.85
2022-11-14T12:31:29.381Z,27.75
2022-11-14T12:34:05.100Z,23.40
2022-11-14T12:36:34.994Z,24.80
2022-11-14T12:39:02.566Z,21.52
2022-11-14T12:41:34.399Z,22.35
2022-11-14T12:44:35.920Z,26.27
2022-11-14T12:47:05.625Z,21.50
2022-11-14T12:49:47.452Z,12.98
2022-11-14T12:52:39.213Z,20.75
2022-11-14T12:55:26.000Z,10.27
2022-11-14T12:58:16.234Z,18.00
2022-11-14T13:00:45.701Z,12.73
2022-11-14T13:03:22.007Z,14.20
2022-11-14T13:06:17.926Z,14.60
2022-11-14T13:09:02.560Z,15.88
2022-11-14T13:11:50.454Z,14.18
2022-11-14T13:14:37.548Z,15.52
2022-11-14T13:20:47.673Z,21.67
2022-11-14T13:23:30.043Z,15.52
2022-11-14T13:26:26.310Z,15.70
2022-11-14T13:28:54.274Z,18.60
2022-11-14T13:31:22.245Z,15.30
2022-11-14T13:34:00.776Z,23.17
2022-11-14T13:36:48.807Z,18.27
2022-11-14T13:39:28.814Z,19.90
2022-11-14T13:42:14.197Z,21.95
2022-11-14T13:44:47.438Z,23.00
2022-11-14T13:47:45.019Z,25.15
2022-11-14T13:52:48.277Z,19.42
2022-11-14T13:55:28.519Z,22.13
2022-11-14T13:58:32.888Z,19.95
2022-11-14T14:01:15.178Z,19.40
2022-11-14T14:03:58.431Z,18.77
2022-11-14T14:06:49.307Z,31.70
2022-11-14T14:09:55.558Z,44.20
2022-11-14T14:12:28.345Z,56.22
2022-11-14T14:15:09.936Z,32.00
2022-11-14T14:17:42.466Z,18.95
2022-11-14T14:20:45.499Z,28.40
2022-11-14T14:23:33.143Z,37.13
2022-11-14T14:26:16.701Z,44.47
2022-11-14T14:28:43.547Z,31.92
2022-11-14T14:31:14.891Z,34.40
2022-11-14T14:33:44.784Z,23.90
2022-11-14T14:36:26.449Z,27.08
2022-11-14T14:39:17.053Z,26.95
2022-11-14T14:41:44.237Z,39.72
2022-11-14T14:44:25.853Z,40.35
2022-11-14T14:46:53.533Z,28.77
2022-11-14T14:49:32.183Z,43.25
2022-11-14T14:51:59.161Z,59.60
2022-11-14T14:54:29.609Z,36.85
2022-11-14T14:57:02.884Z,50.13
2022-11-14T14:59:31.410Z,63.38
2022-11-14T15:01:58.533Z,41.83
2022-11-14T15:04:28.903Z,40.50
2022-11-14T15:06:57.787Z,37.83
2022-11-14T15:09:32.074Z,37.38
2022-11-14T15:12:01.571Z,31.63
2022-11-14T15:14:33.200Z,36.15
2022-11-14T15:17:00.653Z,35.33
2022-11-14T15:19:37.852Z,43.25
2022-11-14T15:22:05.782Z,35.10
2022-11-14T15:24:32.682Z,32.42
2022-11-14T15:27:12.123Z,29.42
2022-11-14T15:29:51.222Z,34.10
2022-11-14T15:32:23.033Z,32.33
2022-11-14T15:35:10.201Z,39.40
2022-11-14T15:40:21.772Z,39.28
2022-11-14T15:42:49.039Z,38.05
2022-11-14T15:45:24.867Z,36.90
2022-11-14T15:48:05.200Z,59.77
2022-11-14T15:50:34.739Z,43.40
2022-11-14T15:53:04.122Z,36.03
2022-11-14T15:55:30.964Z,33.17
2022-11-14T15:58:21.561Z,33.83
2022-11-14T16:00:48.277Z,36.30
2022-11-14T16:03:18.761Z,33.35
2022-11-14T16:05:48.470Z,31.83
2022-11-14T16:08:15.300Z,41.80
2022-11-14T16:10:42.141Z,37.83
2022-11-14T16:13:10.328Z,36.10
2022-11-14T16:15:37.369Z,41.25
2022-11-14T16:18:05.950Z,39.45
2022-11-14T16:20:38.086Z,44.30
2022-11-14T16:23:05.500Z,51.30
2022-11-14T16:25:32.768Z,43.65
2022-11-14T16:27:59.673Z,45.30
2022-11-14T16:30:28.303Z,43.53
2022-11-14T16:32:55.262Z,44.53
2022-11-14T16:35:24.239Z,43.53
2022-11-14T16:37:51.629Z,39.92
2022-11-14T16:40:28.731Z,70.40
2022-11-14T16:42:57.432Z,87.28
2022-11-14T16:45:25.365Z,86.75
2022-11-14T16:47:52.961Z,82.75
2022-11-14T16:50:20.128Z,85.60
2022-11-14T16:52:48.217Z,81.60
2022-11-14T16:55:15.121Z,79.28
2022-11-14T16:57:45.272Z,82.95
2022-11-14T17:00:13.703Z,79.75
2022-11-14T17:02:41.662Z,82.05
2022-11-14T17:05:08.659Z,78.65
2022-11-14T17:07:35.577Z,85.50
2022-11-14T17:10:02.828Z,105.70
2022-11-14T17:12:29.939Z,99.28
2022-11-14T17:14:56.716Z,84.95
2022-11-14T17:17:23.635Z,103.63
2022-11-14T17:19:50.564Z,90.72
2022-11-14T17:22:19.907Z,101.57
2022-11-14T17:24:46.868Z,93.00
2022-11-14T17:27:13.715Z,97.70
2022-11-14T17:29:40.619Z,92.55
2022-11-14T17:32:07.549Z,95.28
2022-11-14T17:34:34.447Z,88.20
2022-11-14T17:37:01.235Z,79.82
2022-11-14T17:39:28.181Z,93.68
2022-11-14T17:41:54.981Z,83.32
2022-11-14T17:44:21.915Z,82.32
2022-11-14T17:46:48.986Z,81.43
2022-11-14T17:49:15.822Z,89.70
2022-11-14T17:51:42.677Z,145.20
2022-11-14T17:54:09.592Z,126.68
2022-11-14T17:56:39.993Z,106.07
2022-11-14T17:59:09.582Z,108.35
2022-11-14T18:01:36.579Z,99.18
2022-11-14T18:04:06.428Z,96.15
2022-11-14T18:06:34.214Z,105.43
2022-11-14T18:09:05.207Z,96.85
2022-11-14T18:11:32.501Z,92.90
2022-11-14T18:13:59.403Z,92.63
2022-11-14T18:16:31.451Z,88.25
2022-11-14T18:19:06.763Z,88.90
2022-11-14T18:21:33.653Z,101.18
2022-11-14T18:24:00.610Z,85.57
2022-11-14T18:26:28.764Z,93.22
2022-11-14T18:28:57.206Z,89.57
2022-11-14T18:31:25.094Z,89.10
2022-11-14T18:33:52.602Z,101.53
2022-11-14T18:36:20.293Z,126.90
2022-11-14T18:38:47.501Z,126.32
2022-11-14T18:41:16.846Z,129.35
2022-11-14T18:43:44.751Z,117.65
2022-11-14T18:46:16.715Z,114.57
2022-11-14T18:48:46.420Z,123.90
2022-11-14T18:51:22.312Z,131.05
2022-11-14T18:53:51.243Z,135.85
2022-11-14T18:56:20.782Z,132.85
2022-11-14T18:58:47.789Z,129.23
2022-11-14T19:01:22.185Z,127.68
2022-11-14T19:03:48.953Z,139.55
2022-11-14T19:06:16.255Z,130.75
2022-11-14T19:08:43.133Z,135.27
2022-11-14T19:11:32.044Z,136.65
2022-11-14T19:14:01.960Z,151.45
2022-11-14T19:16:29.220Z,142.98
2022-11-14T19:18:56.172Z,131.45
2022-11-14T19:21:23.002Z,137.45
2022-11-14T19:23:54.784Z,140.82
2022-11-14T19:26:22.467Z,132.40
2022-11-14T19:28:49.754Z,142.82
2022-11-14T19:31:17.233Z,136.77
2022-11-14T19:33:45.467Z,129.98
2022-11-14T19:36:59.021Z,136.10
2022-11-14T19:39:10.741Z,143.27
2022-11-14T19:41:37.644Z,147.43
2022-11-14T19:44:04.680Z,142.52
2022-11-14T19:46:31.666Z,159.63
2022-11-14T19:49:00.596Z,166.07
2022-11-14T19:51:28.847Z,160.02
2022-11-14T19:53:57.411Z,153.98
2022-11-14T19:56:25.340Z,170.77
2022-11-14T19:58:53.703Z,147.60
2022-11-14T20:01:23.550Z,176.30
2022-11-14T20:03:55.700Z,146.02
2022-11-14T20:06:26.394Z,138.45
2022-11-14T20:08:54.269Z,142.43
2022-11-14T20:11:22.229Z,130.80
2022-11-14T20:13:49.810Z,129.60
2022-11-14T20:16:19.136Z,147.70
2022-11-14T20:18:57.445Z,118.15
2022-11-14T20:21:26.544Z,125.35
2022-11-14T20:23:53.767Z,143.07
2022-11-14T20:26:21.437Z,115.45
2022-11-14T20:28:52.150Z,115.72
2022-11-14T20:31:21.814Z,124.20
2022-11-14T20:33:50.018Z,126.78
2022-11-14T20:36:19.452Z,115.97
2022-11-14T20:38:47.759Z,109.25
2022-11-14T20:41:16.226Z,109.88
2022-11-14T20:43:43.376Z,111.07
2022-11-14T20:46:15.399Z,114.68
2022-11-14T20:48:42.947Z,110.22
2022-11-14T20:51:17.955Z,118.07
2022-11-14T20:53:45.323Z,121.47
2022-11-14T20:56:13.635Z,121.07
2022-11-14T20:58:42.030Z,116.43
2022-11-14T21:01:09.259Z,111.07
2022-11-14T21:03:37.026Z,110.00
2022-11-14T21:06:04.897Z,120.28
2022-11-14T21:08:35.022Z,132.57
2022-11-14T21:11:07.665Z,130.63
2022-11-14T21:13:54.662Z,125.00
2022-11-14T21:16:23.000Z,134.68
2022-11-14T21:18:56.966Z,128.02
2022-11-14T21:21:27.391Z,140.52
2022-11-14T21:23:55.251Z,129.13
2022-11-14T21:26:27.574Z,119.72
2022-11-14T21:28:57.517Z,88.13
2022-11-14T21:31:32.133Z,88.07
2022-11-14T21:34:01.396Z,108.70
2022-11-14T21:36:44.497Z,148.05
2022-11-14T21:39:15.565Z,140.40
2022-11-14T21:41:43.319Z,132.07
2022-11-14T21:44:16.699Z,130.07
2022-11-14T21:46:47.256Z,168.60
2022-11-14T21:49:14.446Z,237.38
2022-11-14T21:51:41.342Z,218.32
2022-11-14T21:54:10.035Z,185.52
2022-11-14T21:56:37.723Z,147.02
2022-11-14T21:59:16.513Z,134.77
2022-11-14T22:02:07.247Z,136.43
2022-11-14T22:04:34.593Z,137.75
2022-11-14T22:07:08.927Z,142.05
2022-11-14T22:09:39.835Z,144.98
2022-11-14T22:12:09.456Z,141.20
2022-11-14T22:14:36.260Z,132.10
2022-11-14T22:17:03.301Z,110.30
2022-11-14T22:19:30.075Z,122.38
2022-11-14T22:21:59.552Z,110.60
2022-11-14T22:24:26.513Z,114.07
2022-11-14T22:26:53.350Z,91.03
2022-11-14T22:29:20.290Z,86.93
2022-11-14T22:33:34.284Z,79.57
2022-11-14T22:36:10.408Z,70.80
2022-11-14T22:38:37.965Z,57.65
2022-11-14T22:41:08.305Z,60.33
2022-11-14T22:43:35.557Z,56.78
2022-11-14T22:46:02.906Z,53.53
2022-11-14T22:48:32.181Z,64.15
2022-11-14T22:51:10.633Z,53.72
2022-11-14T22:53:38.210Z,62.55
2022-11-14T22:56:07.433Z,59.50
2022-11-14T22:58:36.721Z,61.42
2022-11-14T23:01:31.964Z,52.50
2022-11-14T23:04:01.364Z,47.90
2022-11-14T23:06:29.422Z,46.13
2022-11-14T23:08:56.986Z,43.88
2022-11-14T23:11:26.709Z,54.50
2022-11-14T23:13:56.346Z,44.17
2022-11-14T23:16:26.845Z,50.92
2022-11-14T23:18:56.053Z,45.17
2022-11-14T23:21:25.572Z,41.75
2022-11-14T23:23:54.205Z,41.45
2022-11-14T23:26:21.546Z,41.75
2022-11-14T23:28:49.226Z,41.35
2022-11-14T23:31:19.434Z,43.33
2022-11-14T23:33:51.600Z,37.38
2022-11-14T23:36:18.709Z,40.90
2022-11-14T23:38:45.637Z,39.63
2022-11-14T23:41:19.517Z,38.13
2022-11-14T23:43:47.273Z,41.92
2022-11-14T23:46:14.886Z,37.70
2022-11-14T23:48:42.473Z,41.72
2022-11-14T23:51:09.984Z,39.45
2022-11-14T23:53:37.021Z,40.35
2022-11-14T23:56:04.192Z,36.78
2022-11-14T23:58:31.203Z,36.35
